createdAt,value
2023-02-14T05:50:44.660Z,97214.28
2023-02-14T05:53:46.492Z,97207.84
2023-02-14T05:56:51.886Z,97219.25
2023-02-14T05:59:56.567Z,97215.31
2023-02-14T06:02:58.394Z,97216.88
2023-02-14T06:06:06.404Z,97219.28
2023-02-14T06:09:10.922Z,97221.66
2023-02-14T06:12:12.879Z,97232.34
2023-02-14T06:15:16.126Z,97231.47
2023-02-14T06:18:17.917Z,97233.09
2023-02-14T06:21:43.656Z,97238.41
2023-02-14T06:24:45.670Z,97234.72
2023-02-14T06:27:49.377Z,97229.59
2023-02-14T06:30:52.421Z,97232.75
2023-02-14T06:33:55.050Z,97224.81
2023-02-14T06:37:02.289Z,97227.97
2023-02-14T06:40:04.705Z,97228.00
2023-02-14T06:43:07.790Z,97219.00
2023-02-14T06:46:10.562Z,97223.53
2023-02-14T06:49:12.596Z,97232.03
2023-02-14T06:52:15.817Z,97228.31
2023-02-14T06:55:18.173Z,97228.81
2023-02-14T06:58:21.819Z,97227.53
2023-02-14T07:01:24.208Z,97233.91
2023-02-14T07:04:26.453Z,97231.53
2023-02-14T07:07:34.873Z,97233.16
2023-02-14T07:10:37.046Z,97235.25
2023-02-14T07:13:38.899Z,97229.19
2023-02-14T07:16:41.976Z,97237.91
2023-02-14T07:19:45.971Z,97236.06
2023-02-14T07:22:51.259Z,97226.00
2023-02-14T07:25:53.047Z,97226.81
2023-02-14T07:28:57.487Z,97223.91
2023-02-14T07:31:59.431Z,97220.75
2023-02-14T07:35:01.277Z,97214.09
2023-02-14T07:38:04.641Z,97220.25
2023-02-14T07:41:06.734Z,97224.19
2023-02-14T07:44:08.598Z,97220.47
2023-02-14T07:47:10.903Z,97231.63
2023-02-14T07:50:12.764Z,97227.94
2023-02-14T07:53:16.762Z,97222.88
2023-02-14T07:56:19.087Z,97217.84
2023-02-14T07:59:21.280Z,97214.38
2023-02-14T08:02:23.244Z,97212.25
2023-02-14T08:05:25.081Z,97208.53
2023-02-14T08:08:30.564Z,97209.34
2023-02-14T08:11:35.108Z,97206.69
2023-02-14T08:14:38.818Z,97211.50
2023-02-14T08:17:40.633Z,97197.16
2023-02-14T08:20:42.390Z,97202.72
2023-02-14T08:23:48.037Z,97204.59
2023-02-14T08:26:49.780Z,97194.50
2023-02-14T08:29:53.368Z,97193.44
2023-02-14T08:32:55.283Z,97194.25
2023-02-14T08:35:57.079Z,97194.50
2023-02-14T08:39:04.429Z,97192.09
2023-02-14T08:42:06.339Z,97188.66
2023-02-14T08:45:10.278Z,97191.56
2023-02-14T08:48:12.810Z,97191.03
2023-02-14T08:51:16.598Z,97197.38
2023-02-14T08:54:21.999Z,97181.69
2023-02-14T08:57:25.402Z,97187.81
2023-02-14T09:00:27.542Z,97189.94
2023-02-14T09:03:31.142Z,97188.59
2023-02-14T09:06:33.017Z,97189.94
2023-02-14T09:09:41.487Z,97193.09
2023-02-14T09:12:43.321Z,97190.69
2023-02-14T09:15:45.128Z,97190.44
2023-02-14T09:18:49.097Z,97186.16
2023-02-14T09:21:51.010Z,97177.41
2023-02-14T09:24:55.328Z,97184.25
2023-02-14T09:27:59.291Z,97180.53
2023-02-14T09:31:09.313Z,97185.56
2023-02-14T09:34:11.267Z,97172.00
2023-02-14T09:37:17.023Z,97186.06
2023-02-14T09:40:21.009Z,97181.84
2023-02-14T09:43:30.310Z,97182.88
2023-02-14T09:46:40.651Z,97184.97
2023-02-14T09:49:43.279Z,97182.25
2023-02-14T09:52:51.347Z,97183.59
2023-02-14T09:56:04.009Z,97178.53
2023-02-14T09:59:13.016Z,97184.63
2023-02-14T10:02:26.921Z,97182.72
2023-02-14T10:05:40.667Z,97177.59
2023-02-14T10:08:55.815Z,97172.81
2023-02-14T10:12:01.907Z,97173.03
2023-02-14T10:15:14.870Z,97168.25
2023-02-14T10:18:23.134Z,97166.84
2023-02-14T10:21:30.841Z,97156.13
2023-02-14T10:24:38.833Z,97154.28
2023-02-14T10:27:45.887Z,97159.38
2023-02-14T10:31:04.601Z,97159.88
2023-02-14T10:34:14.760Z,97164.41
2023-02-14T10:37:27.906Z,97163.88
2023-02-14T10:40:48.671Z,97165.69
2023-02-14T10:44:04.997Z,97160.28
2023-02-14T10:47:17.372Z,97159.91
2023-02-14T10:50:23.844Z,97156.59
2023-02-14T10:53:33.910Z,97152.81
2023-02-14T10:56:45.485Z,97148.28
2023-02-14T10:59:53.268Z,97143.25
2023-02-14T11:02:59.257Z,97146.03
2023-02-14T11:06:02.958Z,97140.47
2023-02-14T11:09:04.864Z,97145.00
2023-02-14T11:12:17.556Z,97137.72
2023-02-14T11:15:24.828Z,97136.81
2023-02-14T11:18:28.113Z,97143.44
2023-02-14T11:21:37.919Z,97134.09
2023-02-14T11:24:40.363Z,97129.00
2023-02-14T11:27:44.156Z,97134.84
2023-02-14T11:30:51.146Z,97127.28
2023-02-14T11:33:53.886Z,97132.53
2023-02-14T11:36:56.729Z,97127.44
2023-02-14T11:40:02.011Z,97120.97
2023-02-14T11:43:19.516Z,97121.31
2023-02-14T11:46:34.068Z,97125.84
2023-02-14T11:49:38.219Z,97129.03
2023-02-14T11:52:50.077Z,97120.13
2023-02-14T11:55:53.035Z,97115.88
2023-02-14T11:58:57.592Z,97113.72
2023-02-14T12:02:04.270Z,97112.63
2023-02-14T12:05:17.861Z,97108.31
2023-02-14T12:08:26.708Z,97103.53
2023-02-14T12:11:28.480Z,97103.78
2023-02-14T12:14:31.797Z,97099.16
2023-02-14T12:17:39.463Z,97103.56
2023-02-14T12:20:49.708Z,97093.53
2023-02-14T12:24:02.184Z,97091.44
2023-02-14T12:27:15.824Z,97091.41
2023-02-14T12:30:19.711Z,97088.44
2023-02-14T12:33:23.368Z,97080.13
2023-02-14T12:36:39.551Z,97079.25
2023-02-14T12:39:55.226Z,97072.59
2023-02-14T12:43:12.405Z,97077.69
2023-02-14T12:50:03.799Z,97065.06
2023-02-14T12:53:27.636Z,97054.53
2023-02-14T12:56:42.445Z,97045.66
2023-02-14T12:59:58.331Z,97051.44
2023-02-14T13:03:26.707Z,97043.31
2023-02-14T13:06:31.693Z,97052.38
2023-02-14T13:09:44.129Z,97044.66
2023-02-14T13:12:53.812Z,97041.41
2023-02-14T13:16:04.696Z,97042.13
2023-02-14T13:19:17.951Z,97040.44
2023-02-14T13:22:25.051Z,97041.84
2023-02-14T13:25:29.776Z,97037.56
2023-02-14T13:28:32.738Z,97042.03
2023-02-14T13:31:34.674Z,97033.25
2023-02-14T13:34:41.434Z,97036.28
2023-02-14T13:37:49.818Z,97033.72
2023-02-14T13:40:52.760Z,97033.97
2023-02-14T13:43:56.221Z,97031.81
2023-02-14T13:46:58.219Z,97030.03
2023-02-14T13:50:04.475Z,97026.06
2023-02-14T13:53:12.144Z,97025.25
2023-02-14T13:56:34.581Z,97027.94
2023-02-14T13:59:36.457Z,97019.44
2023-02-14T14:02:44.527Z,97020.75
2023-02-14T14:06:03.487Z,97021.72
2023-02-14T14:09:10.740Z,97023.09
2023-02-14T14:12:39.863Z,97023.03
2023-02-14T14:16:26.086Z,97029.75
2023-02-14T14:19:40.242Z,97021.41
2023-02-14T14:22:47.137Z,97023.41
2023-02-14T14:25:50.393Z,97020.16
2023-02-14T14:28:52.192Z,97015.81
2023-02-14T14:31:54.132Z,97014.16
2023-02-14T14:34:58.060Z,97014.94
2023-02-14T14:38:01.611Z,97013.28
2023-02-14T14:41:04.843Z,97015.75
2023-02-14T14:44:07.242Z,97015.03
2023-02-14T14:47:15.167Z,97020.06
2023-02-14T14:50:21.927Z,97012.44
2023-02-14T14:53:28.729Z,97017.25
2023-02-14T14:56:33.180Z,97015.09
2023-02-14T14:59:36.416Z,97013.66
2023-02-14T15:02:38.348Z,97015.25
2023-02-14T15:05:41.947Z,97016.13
2023-02-14T15:08:44.091Z,97014.28
2023-02-14T15:11:49.429Z,97013.34
2023-02-14T15:14:52.106Z,97019.81
2023-02-14T15:17:55.628Z,97026.38
2023-02-14T15:20:57.860Z,97010.88
2023-02-14T15:24:01.844Z,97017.34
2023-02-14T15:27:05.478Z,97018.38
2023-02-14T15:30:20.248Z,97013.41
2023-02-14T15:33:22.260Z,97014.00
2023-02-14T15:36:27.433Z,97013.03
2023-02-14T15:39:33.912Z,97011.00
2023-02-14T15:42:44.721Z,97011.38
2023-02-14T15:45:48.319Z,97006.91
2023-02-14T15:48:51.811Z,97008.94
2023-02-14T15:51:55.356Z,97008.44
2023-02-14T15:54:57.410Z,97009.28
2023-02-14T15:58:04.298Z,97013.97
2023-02-14T16:01:07.322Z,97004.97
2023-02-14T16:04:10.357Z,97002.16
2023-02-14T16:07:23.612Z,97003.91
2023-02-14T16:10:28.149Z,97007.78
2023-02-14T16:13:34.192Z,97007.66
2023-02-14T16:16:58.041Z,97000.25
2023-02-14T16:20:18.638Z,97000.38
2023-02-14T16:23:26.579Z,96995.75
2023-02-14T16:26:30.520Z,96998.56
2023-02-14T16:29:35.238Z,96984.75
2023-02-14T16:32:37.666Z,96989.56
2023-02-14T16:35:40.833Z,96991.59
2023-02-14T16:38:45.426Z,96993.53
2023-02-14T16:41:48.749Z,96993.59
2023-02-14T16:44:53.786Z,96994.03
2023-02-14T16:47:55.840Z,96990.81
2023-02-14T16:51:05.402Z,96991.66
2023-02-14T16:54:12.413Z,96996.66
2023-02-14T16:57:20.706Z,96992.56
2023-02-14T17:00:24.926Z,96996.84
2023-02-14T17:03:27.548Z,96987.59
2023-02-14T17:06:32.621Z,96992.94
2023-02-14T17:09:40.472Z,96999.13
2023-02-14T17:12:45.903Z,96996.69
2023-02-14T17:15:50.403Z,96991.00
2023-02-14T17:18:53.602Z,96999.72
2023-02-14T17:21:57.739Z,96997.28
2023-02-14T17:25:00.707Z,96997.22
2023-02-14T17:28:04.867Z,97003.63
2023-02-14T17:31:11.968Z,96998.19
2023-02-14T17:34:15.124Z,97001.41
2023-02-14T17:37:18.086Z,97006.38
2023-02-14T17:40:21.206Z,97003.47
2023-02-14T17:43:23.601Z,97009.22
2023-02-14T17:46:28.038Z,97011.44
2023-02-14T17:49:30.590Z,97007.75
2023-02-14T17:52:33.115Z,97011.16
2023-02-14T17:55:37.507Z,97013.16
2023-02-14T17:58:40.539Z,97016.31
2023-02-14T18:01:44.686Z,97009.13
2023-02-14T18:04:47.681Z,97019.47
2023-02-14T18:07:51.953Z,97009.16
2023-02-14T18:10:54.796Z,97013.03
2023-02-14T18:13:58.143Z,97012.00
2023-02-14T18:17:02.915Z,97009.75
2023-02-14T18:20:07.250Z,97014.25
2023-02-14T18:23:10.057Z,97011.66
2023-02-14T18:26:14.948Z,97007.91
2023-02-14T18:29:17.710Z,97009.44
2023-02-14T18:32:22.117Z,96998.91
2023-02-14T18:35:24.748Z,97008.78
2023-02-14T18:38:27.439Z,97002.72
2023-02-14T18:41:30.906Z,96998.38
2023-02-14T18:44:33.942Z,97001.31
2023-02-14T18:47:41.627Z,97000.03
2023-02-14T18:50:44.757Z,96997.91
2023-02-14T18:53:48.291Z,96998.16
2023-02-14T18:56:53.067Z,96991.00
2023-02-14T18:59:55.959Z,96994.00
2023-02-14T19:03:01.410Z,96997.50
2023-02-14T19:06:07.577Z,96990.13
2023-02-14T19:09:13.164Z,96990.69
2023-02-14T19:12:15.656Z,96986.53
2023-02-14T19:15:18.684Z,96980.94
2023-02-14T19:18:27.101Z,96980.91
2023-02-14T19:21:31.854Z,96976.88
2023-02-14T19:24:35.051Z,96969.41
2023-02-14T19:27:37.713Z,96972.09
2023-02-14T19:30:41.161Z,96966.88
2023-02-14T19:33:49.248Z,96968.19
2023-02-14T19:36:57.015Z,96965.19
2023-02-14T19:40:00.111Z,96957.16
2023-02-14T19:43:03.251Z,96958.97
2023-02-14T19:46:07.135Z,96958.19
2023-02-14T19:49:13.173Z,96959.59
2023-02-14T19:52:25.785Z,96956.31
2023-02-14T19:55:29.284Z,96954.25
2023-02-14T19:58:32.153Z,96962.44
2023-02-14T20:01:36.791Z,96959.31
2023-02-14T20:04:42.865Z,96953.78
2023-02-14T20:07:46.503Z,96949.66
2023-02-14T20:10:50.469Z,96948.84
2023-02-14T20:13:55.650Z,96953.31
2023-02-14T20:17:01.076Z,96949.84
2023-02-14T20:20:08.447Z,96947.97
2023-02-14T20:23:12.607Z,96946.44
2023-02-14T20:26:16.711Z,96941.97
2023-02-14T20:29:20.772Z,96944.34
2023-02-14T20:32:24.864Z,96943.31
2023-02-14T20:35:31.880Z,96942.59
2023-02-14T20:38:36.173Z,96936.94
2023-02-14T20:41:39.963Z,96946.28
2023-02-14T20:44:43.180Z,96943.44
2023-02-14T20:47:49.164Z,96937.59
2023-02-14T20:50:58.957Z,96943.91
2023-02-14T20:54:04.475Z,96933.34
2023-02-14T20:57:06.975Z,96932.50
2023-02-14T21:00:10.877Z,96931.75
2023-02-14T21:03:15.104Z,96933.59
2023-02-14T21:06:21.316Z,96928.50
2023-02-14T21:09:24.178Z,96923.75
2023-02-14T21:12:27.170Z,96919.78
2023-02-14T21:15:30.119Z,96923.25
2023-02-14T21:18:33.750Z,96924.91
2023-02-14T21:21:38.746Z,96918.53
2023-02-14T21:24:41.292Z,96917.47
2023-02-14T21:27:43.867Z,96917.22
2023-02-14T21:30:46.912Z,96913.53
2023-02-14T21:33:54.981Z,96917.22
2023-02-14T21:36:58.796Z,96913.31
2023-02-14T21:40:01.814Z,96918.06
2023-02-14T21:43:05.291Z,96915.47
2023-02-14T21:46:10.350Z,96912.13
2023-02-14T21:49:13.452Z,96909.66
2023-02-14T21:52:20.733Z,96910.19
2023-02-14T21:55:23.920Z,96909.19
2023-02-14T21:58:26.555Z,96904.16
2023-02-14T22:01:30.696Z,96901.94
2023-02-14T22:04:32.599Z,96911.44
2023-02-14T22:07:36.193Z,96907.25
2023-02-14T22:10:39.399Z,96909.66
2023-02-14T22:13:41.246Z,96917.56
2023-02-14T22:16:43.132Z,96911.69
2023-02-14T22:19:48.078Z,96910.63
2023-02-14T22:22:51.279Z,96902.53
2023-02-14T22:25:53.093Z,96905.66
2023-02-14T22:28:57.268Z,96907.22
2023-02-14T22:31:59.144Z,96902.25
2023-02-14T22:35:00.946Z,96911.53
2023-02-14T22:38:04.226Z,96908.84
2023-02-14T22:41:07.680Z,96908.84
2023-02-14T22:44:09.612Z,96909.66
2023-02-14T22:47:11.403Z,96906.75
2023-02-14T22:50:13.161Z,96913.13
2023-02-14T22:53:16.332Z,96908.59
2023-02-14T22:56:20.541Z,96903.06
2023-02-14T22:59:23.814Z,96903.41
2023-02-14T23:02:25.618Z,96899.16
2023-02-14T23:05:27.392Z,96900.53
2023-02-14T23:08:32.874Z,96895.97
2023-02-14T23:11:36.729Z,96892.25
2023-02-14T23:14:39.630Z,96883.75
2023-02-14T23:17:41.408Z,96888.03
2023-02-14T23:20:43.180Z,96882.72
2023-02-14T23:23:46.348Z,96883.28
2023-02-14T23:26:48.159Z,96880.84
2023-02-14T23:29:50.133Z,96879.00
2023-02-14T23:32:51.922Z,96870.03
2023-02-14T23:35:53.738Z,96871.34
2023-02-14T23:38:56.943Z,96856.75
2023-02-14T23:41:58.725Z,96867.34
2023-02-14T23:45:00.598Z,96857.75
2023-02-14T23:48:03.519Z,96856.19
2023-02-14T23:51:05.296Z,96847.97
2023-02-14T23:54:08.891Z,96850.31
2023-02-14T23:57:10.664Z,96850.66
